sensor_id;sensor_type;location;lat;lon;timestamp;pressure;altitude;pressure_sealevel;temperature;humidity
59588;BME280;45412;54.472;18.464;2022-09-09T00:04:32;99667.60;;;13.42;63.45
59588;BME280;45412;54.472;18.464;2022-09-09T00:10:42;99657.40;;;13.41;62.81
59588;BME280;45412;54.472;18.464;2022-09-09T00:13:51;99659.64;;;13.40;62.66
59588;BME280;45412;54.472;18.464;2022-09-09T00:16:43;99658.38;;;13.38;62.47
59588;BME280;45412;54.472;18.464;2022-09-09T00:19:56;99655.90;;;13.36;62.34
59588;BME280;45412;54.472;18.464;2022-09-09T00:23:19;99649.84;;;13.34;62.37
59588;BME280;45412;54.472;18.464;2022-09-09T00:26:22;99647.27;;;13.31;62.05
59588;BME280;45412;54.472;18.464;2022-09-09T00:29:43;99646.05;;;13.28;61.91
59588;BME280;45412;54.472;18.464;2022-09-09T00:32:33;99641.88;;;13.26;61.80
59588;BME280;45412;54.472;18.464;2022-09-09T00:35:34;99641.48;;;13.24;61.83
59588;BME280;45412;54.472;18.464;2022-09-09T00:38:34;99638.15;;;13.22;61.80
59588;BME280;45412;54.472;18.464;2022-09-09T00:44:34;99631.91;;;13.20;62.05
59588;BME280;45412;54.472;18.464;2022-09-09T00:47:51;99628.46;;;13.19;62.10
59588;BME280;45412;54.472;18.464;2022-09-09T00:51:08;99631.79;;;13.18;61.96
59588;BME280;45412;54.472;18.464;2022-09-09T00:57:27;99627.77;;;13.15;61.91
59588;BME280;45412;54.472;18.464;2022-09-09T01:00:34;99632.50;;;13.14;61.91
59588;BME280;45412;54.472;18.464;2022-09-09T01:03:46;99626.66;;;13.12;61.81
59588;BME280;45412;54.472;18.464;2022-09-09T01:06:37;99630.88;;;13.12;61.74
59588;BME280;45412;54.472;18.464;2022-09-09T01:09:56;99632.57;;;13.11;61.87
59588;BME280;45412;54.472;18.464;2022-09-09T01:12:47;99629.08;;;13.10;61.70
59588;BME280;45412;54.472;18.464;2022-09-09T01:15:40;99632.40;;;13.11;61.76
59588;BME280;45412;54.472;18.464;2022-09-09T01:18:51;99628.55;;;13.13;61.49
59588;BME280;45412;54.472;18.464;2022-09-09T01:21:57;99631.36;;;13.15;61.44
59588;BME280;45412;54.472;18.464;2022-09-09T01:25:26;99633.33;;;13.16;61.39
59588;BME280;45412;54.472;18.464;2022-09-09T01:28:27;99632.02;;;13.17;61.32
59588;BME280;45412;54.472;18.464;2022-09-09T01:31:39;99637.64;;;13.18;61.29
59588;BME280;45412;54.472;18.464;2022-09-09T01:34:38;99633.55;;;13.18;61.19
59588;BME280;45412;54.472;18.464;2022-09-09T01:37:27;99637.80;;;13.18;61.02
59588;BME280;45412;54.472;18.464;2022-09-09T01:40:17;99637.34;;;13.19;60.92
59588;BME280;45412;54.472;18.464;2022-09-09T01:43:07;99639.43;;;13.20;61.04
59588;BME280;45412;54.472;18.464;2022-09-09T01:45:59;99638.33;;;13.20;60.94
59588;BME280;45412;54.472;18.464;2022-09-09T01:48:52;99639.53;;;13.21;61.01
59588;BME280;45412;54.472;18.464;2022-09-09T01:51:42;99637.37;;;13.21;60.94
59588;BME280;45412;54.472;18.464;2022-09-09T01:54:34;99642.94;;;13.22;60.80
59588;BME280;45412;54.472;18.464;2022-09-09T01:57:36;99638.13;;;13.22;60.79
59588;BME280;45412;54.472;18.464;2022-09-09T02:00:28;99634.19;;;13.22;60.72
59588;BME280;45412;54.472;18.464;2022-09-09T02:03:31;99632.38;;;13.22;60.70
59588;BME280;45412;54.472;18.464;2022-09-09T02:06:37;99630.58;;;13.23;60.76
59588;BME280;45412;54.472;18.464;2022-09-09T02:09:39;99629.09;;;13.24;60.65
59588;BME280;45412;54.472;18.464;2022-09-09T02:12:30;99626.95;;;13.23;60.70
59588;BME280;45412;54.472;18.464;2022-09-09T02:15:36;99630.32;;;13.23;60.73
59588;BME280;45412;54.472;18.464;2022-09-09T02:18:44;99629.65;;;13.23;60.74
59588;BME280;45412;54.472;18.464;2022-09-09T02:21:36;99629.79;;;13.23;60.72
59588;BME280;45412;54.472;18.464;2022-09-09T02:24:25;99629.08;;;13.23;60.64
59588;BME280;45412;54.472;18.464;2022-09-09T02:27:23;99629.08;;;13.23;60.57
59588;BME280;45412;54.472;18.464;2022-09-09T02:30:12;99629.06;;;13.24;60.55
59588;BME280;45412;54.472;18.464;2022-09-09T02:33:06;99631.52;;;13.24;60.62
59588;BME280;45412;54.472;18.464;2022-09-09T02:36:02;99632.98;;;13.24;60.59
59588;BME280;45412;54.472;18.464;2022-09-09T02:38:52;99634.40;;;13.24;60.58
59588;BME280;45412;54.472;18.464;2022-09-09T02:41:44;99635.52;;;13.23;60.68
59588;BME280;45412;54.472;18.464;2022-09-09T02:44:32;99635.90;;;13.23;60.73
59588;BME280;45412;54.472;18.464;2022-09-09T02:47:32;99633.00;;;13.22;60.47
59588;BME280;45412;54.472;18.464;2022-09-09T02:50:34;99636.38;;;13.22;60.63
59588;BME280;45412;54.472;18.464;2022-09-09T02:53:35;99637.39;;;13.20;60.47
59588;BME280;45412;54.472;18.464;2022-09-09T02:56:32;99633.58;;;13.20;60.40
59588;BME280;45412;54.472;18.464;2022-09-09T02:59:25;99631.77;;;13.18;60.43
59588;BME280;45412;54.472;18.464;2022-09-09T03:02:14;99635.05;;;13.17;60.37
59588;BME280;45412;54.472;18.464;2022-09-09T03:05:04;99635.30;;;13.16;60.41
59588;BME280;45412;54.472;18.464;2022-09-09T03:07:53;99637.45;;;13.15;60.28
59588;BME280;45412;54.472;18.464;2022-09-09T03:10:41;99637.18;;;13.12;61.53
59588;BME280;45412;54.472;18.464;2022-09-09T03:13:30;99636.54;;;13.01;62.96
59588;BME280;45412;54.472;18.464;2022-09-09T03:16:18;99639.27;;;12.89;64.03
59588;BME280;45412;54.472;18.464;2022-09-09T03:19:08;99637.92;;;12.75;65.39
59588;BME280;45412;54.472;18.464;2022-09-09T03:21:57;99636.02;;;12.61;66.26
59588;BME280;45412;54.472;18.464;2022-09-09T03:24:47;99640.27;;;12.52;67.47
59588;BME280;45412;54.472;18.464;2022-09-09T03:27:35;99643.02;;;12.35;70.75
59588;BME280;45412;54.472;18.464;2022-09-09T03:30:25;99652.46;;;12.19;71.81
59588;BME280;45412;54.472;18.464;2022-09-09T03:33:14;99655.12;;;12.02;73.28
59588;BME280;45412;54.472;18.464;2022-09-09T03:36:05;99661.40;;;11.85;75.96
59588;BME280;45412;54.472;18.464;2022-09-09T03:38:54;99658.42;;;11.66;78.22
59588;BME280;45412;54.472;18.464;2022-09-09T03:41:43;99671.08;;;11.46;82.12
59588;BME280;45412;54.472;18.464;2022-09-09T03:44:34;99673.50;;;10.97;93.39
59588;BME280;45412;54.472;18.464;2022-09-09T03:47:22;99675.36;;;10.64;96.35
59588;BME280;45412;54.472;18.464;2022-09-09T03:50:14;99674.82;;;10.47;98.27
59588;BME280;45412;54.472;18.464;2022-09-09T03:53:05;99681.69;;;10.33;99.47
59588;BME280;45412;54.472;18.464;2022-09-09T03:55:56;99683.64;;;10.19;100.00
59588;BME280;45412;54.472;18.464;2022-09-09T03:58:47;99688.83;;;10.12;100.00
59588;BME280;45412;54.472;18.464;2022-09-09T04:01:35;99690.34;;;10.07;100.00
59588;BME280;45412;54.472;18.464;2022-09-09T04:04:23;99692.61;;;10.03;100.00
59588;BME280;45412;54.472;18.464;2022-09-09T04:07:15;99693.58;;;10.00;100.00
59588;BME280;45412;54.472;18.464;2022-09-09T04:10:04;99688.60;;;9.97;100.00
59588;BME280;45412;54.472;18.464;2022-09-09T04:12:53;99691.63;;;9.97;100.00
59588;BME280;45412;54.472;18.464;2022-09-09T04:15:41;99689.04;;;9.96;100.00
59588;BME280;45412;54.472;18.464;2022-09-09T04:18:30;99694.71;;;9.96;100.00
59588;BME280;45412;54.472;18.464;2022-09-09T04:21:19;99693.02;;;10.00;100.00
59588;BME280;45412;54.472;18.464;2022-09-09T04:24:08;99697.40;;;9.96;100.00
59588;BME280;45412;54.472;18.464;2022-09-09T04:26:56;99692.90;;;9.97;100.00
59588;BME280;45412;54.472;18.464;2022-09-09T04:29:44;99692.20;;;9.99;100.00
59588;BME280;45412;54.472;18.464;2022-09-09T04:32:33;99688.50;;;10.01;100.00
59588;BME280;45412;54.472;18.464;2022-09-09T04:35:21;99694.32;;;10.04;100.00
59588;BME280;45412;54.472;18.464;2022-09-09T04:38:10;99699.44;;;10.06;100.00
59588;BME280;45412;54.472;18.464;2022-09-09T04:40:59;99701.41;;;10.08;100.00
59588;BME280;45412;54.472;18.464;2022-09-09T04:43:48;99700.80;;;10.09;100.00
59588;BME280;45412;54.472;18.464;2022-09-09T04:46:38;99710.34;;;10.09;100.00
59588;BME280;45412;54.472;18.464;2022-09-09T04:49:30;99710.86;;;10.10;100.00
59588;BME280;45412;54.472;18.464;2022-09-09T04:52:20;99711.77;;;10.09;100.00
59588;BME280;45412;54.472;18.464;2022-09-09T04:55:08;99708.89;;;10.10;100.00
59588;BME280;45412;54.472;18.464;2022-09-09T04:57:57;99711.98;;;10.09;100.00
59588;BME280;45412;54.472;18.464;2022-09-09T05:00:45;99713.44;;;10.08;100.00
59588;BME280;45412;54.472;18.464;2022-09-09T05:03:34;99710.80;;;10.08;100.00
59588;BME280;45412;54.472;18.464;2022-09-09T05:06:23;99714.05;;;10.07;100.00
59588;BME280;45412;54.472;18.464;2022-09-09T05:09:15;99717.20;;;10.08;100.00
59588;BME280;45412;54.472;18.464;2022-09-09T05:12:04;99720.88;;;10.04;100.00
59588;BME280;45412;54.472;18.464;2022-09-09T05:14:55;99723.31;;;10.04;100.00
59588;BME280;45412;54.472;18.464;2022-09-09T05:17:43;99722.60;;;10.02;100.00
59588;BME280;45412;54.472;18.464;2022-09-09T05:20:31;99726.44;;;10.03;100.00
59588;BME280;45412;54.472;18.464;2022-09-09T05:23:19;99724.32;;;10.01;100.00
59588;BME280;45412;54.472;18.464;2022-09-09T05:26:14;99728.81;;;10.02;100.00
59588;BME280;45412;54.472;18.464;2022-09-09T05:29:06;99732.92;;;10.00;100.00
59588;BME280;45412;54.472;18.464;2022-09-09T05:31:55;99729.34;;;10.00;100.00
59588;BME280;45412;54.472;18.464;2022-09-09T05:34:44;99728.05;;;10.00;100.00
59588;BME280;45412;54.472;18.464;2022-09-09T05:37:33;99727.39;;;10.02;100.00
59588;BME280;45412;54.472;18.464;2022-09-09T05:40:23;99726.66;;;10.02;100.00
59588;BME280;45412;54.472;18.464;2022-09-09T05:43:11;99725.48;;;10.02;100.00
59588;BME280;45412;54.472;18.464;2022-09-09T05:48:58;99722.48;;;10.01;100.00
59588;BME280;45412;54.472;18.464;2022-09-09T05:51:49;99723.61;;;10.03;100.00
59588;BME280;45412;54.472;18.464;2022-09-09T05:54:38;99732.42;;;10.03;100.00
59588;BME280;45412;54.472;18.464;2022-09-09T05:57:28;99734.04;;;10.03;100.00
59588;BME280;45412;54.472;18.464;2022-09-09T06:00:16;99730.10;;;10.04;100.00
59588;BME280;45412;54.472;18.464;2022-09-09T06:03:05;99732.96;;;9.99;100.00
59588;BME280;45412;54.472;18.464;2022-09-09T06:06:02;99734.84;;;9.96;100.00
59588;BME280;45412;54.472;18.464;2022-09-09T06:08:55;99733.34;;;9.95;100.00
59588;BME280;45412;54.472;18.464;2022-09-09T06:11:50;99738.23;;;9.97;100.00
59588;BME280;45412;54.472;18.464;2022-09-09T06:14:39;99741.84;;;9.99;100.00
59588;BME280;45412;54.472;18.464;2022-09-09T06:17:33;99740.41;;;9.99;100.00
59588;BME280;45412;54.472;18.464;2022-09-09T06:20:21;99742.53;;;9.97;100.00
59588;BME280;45412;54.472;18.464;2022-09-09T06:23:09;99744.34;;;9.97;100.00
59588;BME280;45412;54.472;18.464;2022-09-09T06:26:26;99740.54;;;9.97;100.00
59588;BME280;45412;54.472;18.464;2022-09-09T06:29:15;99743.96;;;9.97;100.00
59588;BME280;45412;54.472;18.464;2022-09-09T06:32:03;99747.06;;;9.96;100.00
59588;BME280;45412;54.472;18.464;2022-09-09T06:34:51;99747.86;;;9.95;100.00
59588;BME280;45412;54.472;18.464;2022-09-09T06:37:39;99750.59;;;9.94;100.00
59588;BME280;45412;54.472;18.464;2022-09-09T06:40:27;99749.23;;;9.91;100.00
59588;BME280;45412;54.472;18.464;2022-09-09T06:43:15;99745.98;;;9.89;100.00
59588;BME280;45412;54.472;18.464;2022-09-09T06:46:20;99746.97;;;9.90;100.00
59588;BME280;45412;54.472;18.464;2022-09-09T06:49:15;99750.48;;;9.93;100.00
59588;BME280;45412;54.472;18.464;2022-09-09T06:52:03;99754.65;;;9.94;100.00
59588;BME280;45412;54.472;18.464;2022-09-09T06:54:52;99756.61;;;9.94;100.00
59588;BME280;45412;54.472;18.464;2022-09-09T06:57:41;99755.40;;;9.93;100.00
59588;BME280;45412;54.472;18.464;2022-09-09T07:00:33;99763.56;;;9.93;100.00
59588;BME280;45412;54.472;18.464;2022-09-09T07:03:21;99771.33;;;9.86;100.00
59588;BME280;45412;54.472;18.464;2022-09-09T07:06:26;99768.10;;;9.85;100.00
59588;BME280;45412;54.472;18.464;2022-09-09T07:09:16;99766.98;;;9.83;100.00
59588;BME280;45412;54.472;18.464;2022-09-09T07:12:06;99768.46;;;9.83;100.00
59588;BME280;45412;54.472;18.464;2022-09-09T07:14:55;99772.52;;;9.81;100.00
59588;BME280;45412;54.472;18.464;2022-09-09T07:17:43;99775.17;;;9.79;100.00
59588;BME280;45412;54.472;18.464;2022-09-09T07:20:31;99775.55;;;9.76;100.00
59588;BME280;45412;54.472;18.464;2022-09-09T07:23:19;99774.52;;;9.73;100.00
59588;BME280;45412;54.472;18.464;2022-09-09T07:26:15;99778.31;;;9.70;100.00
59588;BME280;45412;54.472;18.464;2022-09-09T07:29:04;99780.34;;;9.67;100.00
59588;BME280;45412;54.472;18.464;2022-09-09T07:31:53;99778.24;;;9.64;100.00
59588;BME280;45412;54.472;18.464;2022-09-09T07:34:45;99781.11;;;9.64;100.00
59588;BME280;45412;54.472;18.464;2022-09-09T07:37:37;99778.10;;;9.64;100.00
59588;BME280;45412;54.472;18.464;2022-09-09T07:40:25;99780.13;;;9.63;100.00
59588;BME280;45412;54.472;18.464;2022-09-09T07:43:13;99783.25;;;9.64;100.00
59588;BME280;45412;54.472;18.464;2022-09-09T07:46:04;99784.96;;;9.64;100.00
59588;BME280;45412;54.472;18.464;2022-09-09T07:48:55;99787.07;;;9.67;100.00
59588;BME280;45412;54.472;18.464;2022-09-09T07:51:47;99791.92;;;9.70;100.00
59588;BME280;45412;54.472;18.464;2022-09-09T07:54:36;99794.16;;;9.74;100.00
59588;BME280;45412;54.472;18.464;2022-09-09T07:57:26;99791.00;;;9.78;100.00
59588;BME280;45412;54.472;18.464;2022-09-09T08:00:15;99793.46;;;9.82;100.00
59588;BME280;45412;54.472;18.464;2022-09-09T08:03:07;99792.02;;;9.85;100.00
59588;BME280;45412;54.472;18.464;2022-09-09T08:06:02;99794.05;;;9.88;100.00
59588;BME280;45412;54.472;18.464;2022-09-09T08:08:51;99800.41;;;9.93;100.00
59588;BME280;45412;54.472;18.464;2022-09-09T08:11:41;99798.90;;;9.97;100.00
59588;BME280;45412;54.472;18.464;2022-09-09T08:14:31;99798.46;;;10.00;100.00
59588;BME280;45412;54.472;18.464;2022-09-09T08:17:19;99799.70;;;10.02;100.00
59588;BME280;45412;54.472;18.464;2022-09-09T08:20:08;99800.27;;;10.04;100.00
59588;BME280;45412;54.472;18.464;2022-09-09T08:22:57;99804.60;;;10.05;100.00
59588;BME280;45412;54.472;18.464;2022-09-09T08:25:45;99805.01;;;10.07;100.00
59588;BME280;45412;54.472;18.464;2022-09-09T08:28:33;99811.98;;;10.08;100.00
59588;BME280;45412;54.472;18.464;2022-09-09T08:31:28;99807.35;;;10.06;100.00
59588;BME280;45412;54.472;18.464;2022-09-09T08:34:17;99804.93;;;10.03;100.00
59588;BME280;45412;54.472;18.464;2022-09-09T08:37:09;99804.11;;;10.00;100.00
59588;BME280;45412;54.472;18.464;2022-09-09T08:39:59;99811.85;;;9.99;100.00
59588;BME280;45412;54.472;18.464;2022-09-09T08:42:52;99809.52;;;9.95;100.00
59588;BME280;45412;54.472;18.464;2022-09-09T08:55:51;99809.52;;;9.86;100.00
59588;BME280;45412;54.472;18.464;2022-09-09T08:58:51;99809.88;;;9.85;100.00
59588;BME280;45412;54.472;18.464;2022-09-09T09:09:16;99806.08;;;9.89;100.00
59588;BME280;45412;54.472;18.464;2022-09-09T09:11:53;99808.40;;;9.86;100.00
59588;BME280;45412;54.472;18.464;2022-09-09T09:14:44;99811.77;;;9.93;100.00
59588;BME280;45412;54.472;18.464;2022-09-09T09:17:34;99814.63;;;9.95;100.00
59588;BME280;45412;54.472;18.464;2022-09-09T09:23:43;99817.39;;;10.00;100.00
59588;BME280;45412;54.472;18.464;2022-09-09T09:26:35;99818.91;;;10.04;100.00
59588;BME280;45412;54.472;18.464;2022-09-09T09:29:25;99819.11;;;10.11;100.00
59588;BME280;45412;54.472;18.464;2022-09-09T09:32:18;99819.31;;;10.12;100.00
59588;BME280;45412;54.472;18.464;2022-09-09T09:35:13;99825.10;;;10.15;100.00
59588;BME280;45412;54.472;18.464;2022-09-09T09:38:27;99824.11;;;10.16;100.00
59588;BME280;45412;54.472;18.464;2022-09-09T09:41:39;99818.81;;;10.20;100.00
59588;BME280;45412;54.472;18.464;2022-09-09T09:44:31;99821.95;;;10.26;100.00
59588;BME280;45412;54.472;18.464;2022-09-09T09:47:24;99819.51;;;10.34;100.00
59588;BME280;45412;54.472;18.464;2022-09-09T09:50:33;99822.73;;;10.41;100.00
59588;BME280;45412;54.472;18.464;2022-09-09T09:53:29;99826.09;;;10.38;100.00
59588;BME280;45412;54.472;18.464;2022-09-09T09:56:26;99825.77;;;10.31;100.00
59588;BME280;45412;54.472;18.464;2022-09-09T09:59:36;99827.83;;;10.34;100.00
59588;BME280;45412;54.472;18.464;2022-09-09T10:02:49;99825.70;;;10.37;100.00
59588;BME280;45412;54.472;18.464;2022-09-09T10:05:45;99826.50;;;10.38;100.00
59588;BME280;45412;54.472;18.464;2022-09-09T10:08:45;99824.64;;;10.34;100.00
59588;BME280;45412;54.472;18.464;2022-09-09T10:12:24;99828.39;;;10.39;100.00
59588;BME280;45412;54.472;18.464;2022-09-09T10:15:21;99824.45;;;10.42;100.00
59588;BME280;45412;54.472;18.464;2022-09-09T10:19:36;99822.45;;;10.49;100.00
59588;BME280;45412;54.472;18.464;2022-09-09T10:25:55;99820.30;;;10.67;100.00
59588;BME280;45412;54.472;18.464;2022-09-09T10:38:47;99822.27;;;10.97;100.00
59588;BME280;45412;54.472;18.464;2022-09-09T10:45:39;99822.29;;;10.96;100.00
59588;BME280;45412;54.472;18.464;2022-09-09T10:55:26;99826.16;;;11.12;100.00
59588;BME280;45412;54.472;18.464;2022-09-09T10:58:52;99822.95;;;11.20;100.00
59588;BME280;45412;54.472;18.464;2022-09-09T11:05:16;99820.88;;;11.22;99.65
59588;BME280;45412;54.472;18.464;2022-09-09T11:08:15;99818.89;;;11.22;99.43
59588;BME280;45412;54.472;18.464;2022-09-09T11:11:52;99814.56;;;11.27;99.88
59588;BME280;45412;54.472;18.464;2022-09-09T11:14:47;99817.10;;;11.35;99.80
59588;BME280;45412;54.472;18.464;2022-09-09T11:17:49;99813.25;;;11.30;99.53
59588;BME280;45412;54.472;18.464;2022-09-09T11:20:38;99820.51;;;11.32;99.48
59588;BME280;45412;54.472;18.464;2022-09-09T11:23:51;99822.85;;;11.40;99.35
59588;BME280;45412;54.472;18.464;2022-09-09T11:27:29;99826.99;;;11.42;99.20
59588;BME280;45412;54.472;18.464;2022-09-09T11:30:25;99828.46;;;11.39;98.93
59588;BME280;45412;54.472;18.464;2022-09-09T11:34:16;99831.07;;;11.38;98.86
59588;BME280;45412;54.472;18.464;2022-09-09T11:38:01;99839.69;;;11.32;99.06
59588;BME280;45412;54.472;18.464;2022-09-09T11:40:30;99835.06;;;11.28;99.51
59588;BME280;45412;54.472;18.464;2022-09-09T11:43:51;99836.02;;;11.30;99.95
59588;BME280;45412;54.472;18.464;2022-09-09T11:46:40;99837.60;;;11.38;99.92
59588;BME280;45412;54.472;18.464;2022-09-09T11:49:41;99836.36;;;11.43;99.75
59588;BME280;45412;54.472;18.464;2022-09-09T11:52:45;99836.58;;;11.50;99.89
59588;BME280;45412;54.472;18.464;2022-09-09T11:55:36;99839.23;;;11.53;99.71
59588;BME280;45412;54.472;18.464;2022-09-09T11:58:24;99841.45;;;11.50;99.36
59588;BME280;45412;54.472;18.464;2022-09-09T12:01:33;99838.58;;;11.50;99.15
59588;BME280;45412;54.472;18.464;2022-09-09T12:04:32;99843.25;;;11.54;99.75
59588;BME280;45412;54.472;18.464;2022-09-09T12:07:38;99836.66;;;11.54;99.33
59588;BME280;45412;54.472;18.464;2022-09-09T12:10:33;99837.55;;;11.57;99.84
59588;BME280;45412;54.472;18.464;2022-09-09T12:13:26;99836.80;;;11.54;99.44
59588;BME280;45412;54.472;18.464;2022-09-09T12:16:36;99837.70;;;11.48;99.65
59588;BME280;45412;54.472;18.464;2022-09-09T12:19:26;99841.48;;;11.45;99.92
59588;BME280;45412;54.472;18.464;2022-09-09T12:32:17;99842.23;;;11.40;100.00
59588;BME280;45412;54.472;18.464;2022-09-09T12:35:26;99840.63;;;11.38;100.00
59588;BME280;45412;54.472;18.464;2022-09-09T12:38:46;99836.58;;;11.40;100.00
59588;BME280;45412;54.472;18.464;2022-09-09T12:41:36;99838.33;;;11.45;100.00
59588;BME280;45412;54.472;18.464;2022-09-09T12:44:30;99840.21;;;11.48;100.00
59588;BME280;45412;54.472;18.464;2022-09-09T12:47:45;99836.48;;;11.56;100.00
59588;BME280;45412;54.472;18.464;2022-09-09T12:50:51;99836.41;;;11.59;100.00
59588;BME280;45412;54.472;18.464;2022-09-09T12:53:44;99840.08;;;11.64;100.00
59588;BME280;45412;54.472;18.464;2022-09-09T12:56:37;99837.49;;;11.63;100.00
59588;BME280;45412;54.472;18.464;2022-09-09T12:59:38;99838.09;;;11.60;100.00
59588;BME280;45412;54.472;18.464;2022-09-09T13:02:28;99841.04;;;11.63;100.00
59588;BME280;45412;54.472;18.464;2022-09-09T13:05:37;99843.09;;;11.66;100.00
59588;BME280;45412;54.472;18.464;2022-09-09T13:08:26;99846.84;;;11.68;100.00
59588;BME280;45412;54.472;18.464;2022-09-09T13:11:21;99845.50;;;11.69;100.00
59588;BME280;45412;54.472;18.464;2022-09-09T13:14:33;99848.26;;;11.70;100.00
59588;BME280;45412;54.472;18.464;2022-09-09T13:17:26;99836.23;;;11.73;100.00
59588;BME280;45412;54.472;18.464;2022-09-09T13:20:19;99840.58;;;11.81;100.00
59588;BME280;45412;54.472;18.464;2022-09-09T13:23:11;99837.98;;;11.82;99.90
59588;BME280;45412;54.472;18.464;2022-09-09T13:26:03;99833.02;;;11.78;99.96
59588;BME280;45412;54.472;18.464;2022-09-09T13:28:54;99832.37;;;11.77;100.00
59588;BME280;45412;54.472;18.464;2022-09-09T13:31:53;99828.35;;;11.79;100.00
59588;BME280;45412;54.472;18.464;2022-09-09T13:34:56;99827.22;;;11.83;100.00
59588;BME280;45412;54.472;18.464;2022-09-09T13:37:45;99824.66;;;11.90;100.00
59588;BME280;45412;54.472;18.464;2022-09-09T13:40:35;99820.06;;;11.94;99.77
59588;BME280;45412;54.472;18.464;2022-09-09T13:43:25;99819.33;;;11.94;99.25
59588;BME280;45412;54.472;18.464;2022-09-09T13:46:37;99811.20;;;11.91;99.38
59588;BME280;45412;54.472;18.464;2022-09-09T13:49:30;99811.73;;;11.89;99.47
59588;BME280;45412;54.472;18.464;2022-09-09T13:52:21;99811.36;;;11.91;99.89
59588;BME280;45412;54.472;18.464;2022-09-09T13:55:12;99817.82;;;11.91;99.84
59588;BME280;45412;54.472;18.464;2022-09-09T13:58:03;99818.02;;;11.83;99.81
59588;BME280;45412;54.472;18.464;2022-09-09T14:00:54;99816.89;;;11.79;99.88
59588;BME280;45412;54.472;18.464;2022-09-09T14:03:46;99816.30;;;11.73;100.00
59588;BME280;45412;54.472;18.464;2022-09-09T14:06:35;99809.20;;;11.71;100.00
59588;BME280;45412;54.472;18.464;2022-09-09T14:09:26;99803.56;;;11.67;100.00
59588;BME280;45412;54.472;18.464;2022-09-09T14:12:17;99804.30;;;11.64;100.00
59588;BME280;45412;54.472;18.464;2022-09-09T14:15:10;99809.02;;;11.61;100.00
59588;BME280;45412;54.472;18.464;2022-09-09T14:17:58;99812.72;;;11.57;100.00
59588;BME280;45412;54.472;18.464;2022-09-09T14:20:46;99809.14;;;11.53;100.00
59588;BME280;45412;54.472;18.464;2022-09-09T14:23:35;99807.14;;;11.52;100.00
59588;BME280;45412;54.472;18.464;2022-09-09T14:26:24;99808.38;;;11.54;100.00
59588;BME280;45412;54.472;18.464;2022-09-09T14:29:12;99803.63;;;11.57;100.00
59588;BME280;45412;54.472;18.464;2022-09-09T14:32:00;99806.98;;;11.62;100.00
59588;BME280;45412;54.472;18.464;2022-09-09T14:34:48;99807.59;;;11.59;100.00
59588;BME280;45412;54.472;18.464;2022-09-09T14:37:37;99805.35;;;11.58;100.00
59588;BME280;45412;54.472;18.464;2022-09-09T14:40:26;99808.21;;;11.58;100.00
59588;BME280;45412;54.472;18.464;2022-09-09T14:43:16;99811.02;;;11.61;100.00
59588;BME280;45412;54.472;18.464;2022-09-09T14:46:09;99807.75;;;11.59;100.00
59588;BME280;45412;54.472;18.464;2022-09-09T14:48:58;99814.98;;;11.55;100.00
59588;BME280;45412;54.472;18.464;2022-09-09T14:51:46;99819.42;;;11.52;100.00
59588;BME280;45412;54.472;18.464;2022-09-09T14:54:34;99817.76;;;11.50;100.00
59588;BME280;45412;54.472;18.464;2022-09-09T14:57:22;99824.27;;;11.51;100.00
59588;BME280;45412;54.472;18.464;2022-09-09T15:00:11;99825.14;;;11.51;100.00
59588;BME280;45412;54.472;18.464;2022-09-09T15:03:01;99825.45;;;11.52;100.00
59588;BME280;45412;54.472;18.464;2022-09-09T15:05:49;99822.25;;;11.52;100.00
59588;BME280;45412;54.472;18.464;2022-09-09T15:08:39;99819.02;;;11.52;100.00
59588;BME280;45412;54.472;18.464;2022-09-09T15:11:35;99818.42;;;11.53;100.00
59588;BME280;45412;54.472;18.464;2022-09-09T15:14:26;99814.79;;;11.56;100.00
59588;BME280;45412;54.472;18.464;2022-09-09T15:17:14;99816.98;;;11.57;100.00
59588;BME280;45412;54.472;18.464;2022-09-09T15:20:03;99815.83;;;11.56;100.00
59588;BME280;45412;54.472;18.464;2022-09-09T15:22:53;99815.56;;;11.53;100.00
59588;BME280;45412;54.472;18.464;2022-09-09T15:25:52;99820.36;;;11.53;100.00
59588;BME280;45412;54.472;18.464;2022-09-09T15:28:42;99817.50;;;11.55;100.00
59588;BME280;45412;54.472;18.464;2022-09-09T15:31:32;99820.66;;;11.58;100.00
59588;BME280;45412;54.472;18.464;2022-09-09T15:34:19;99829.84;;;11.58;100.00
59588;BME280;45412;54.472;18.464;2022-09-09T15:37:10;99833.70;;;11.57;100.00
59588;BME280;45412;54.472;18.464;2022-09-09T15:40:01;99834.13;;;11.56;100.00
59588;BME280;45412;54.472;18.464;2022-09-09T15:42:49;99833.29;;;11.54;100.00
59588;BME280;45412;54.472;18.464;2022-09-09T15:45:37;99830.38;;;11.54;100.00
59588;BME280;45412;54.472;18.464;2022-09-09T15:48:31;99832.42;;;11.53;100.00
59588;BME280;45412;54.472;18.464;2022-09-09T15:51:23;99829.85;;;11.55;100.00
59588;BME280;45412;54.472;18.464;2022-09-09T15:54:35;99829.83;;;11.57;100.00
59588;BME280;45412;54.472;18.464;2022-09-09T15:57:26;99830.19;;;11.56;100.00
59588;BME280;45412;54.472;18.464;2022-09-09T16:00:15;99829.60;;;11.57;100.00
59588;BME280;45412;54.472;18.464;2022-09-09T16:03:03;99828.16;;;11.57;100.00
59588;BME280;45412;54.472;18.464;2022-09-09T16:05:51;99831.33;;;11.60;100.00
59588;BME280;45412;54.472;18.464;2022-09-09T16:08:43;99834.16;;;11.60;100.00
59588;BME280;45412;54.472;18.464;2022-09-09T16:11:35;99835.71;;;11.61;100.00
59588;BME280;45412;54.472;18.464;2022-09-09T16:14:23;99835.86;;;11.61;100.00
59588;BME280;45412;54.472;18.464;2022-09-09T16:17:12;99837.58;;;11.64;100.00
59588;BME280;45412;54.472;18.464;2022-09-09T16:20:02;99836.61;;;11.67;100.00
59588;BME280;45412;54.472;18.464;2022-09-09T16:22:52;99835.91;;;11.71;100.00